sensor_id;sensor_type;location;lat;lon;timestamp;pressure;altitude;pressure_sealevel;temperature;humidity
73679;BME280;61978;52.742;16.962;2022-07-17T00:01:47;101507.23;;;11.32;100.00
73679;BME280;61978;52.742;16.962;2022-07-17T00:04:15;101507.59;;;11.29;100.00
73679;BME280;61978;52.742;16.962;2022-07-17T00:06:44;101506.77;;;11.28;100.00
73679;BME280;61978;52.742;16.962;2022-07-17T00:09:13;101503.05;;;11.33;100.00
73679;BME280;61978;52.742;16.962;2022-07-17T00:11:39;101507.23;;;11.32;100.00
73679;BME280;61978;52.742;16.962;2022-07-17T00:14:06;101510.27;;;11.29;100.00
73679;BME280;61978;52.742;16.962;2022-07-17T00:16:32;101508.97;;;11.16;100.00
73679;BME280;61978;52.742;16.962;2022-07-17T00:18:59;101519.94;;;11.07;100.00
73679;BME280;61978;52.742;16.962;2022-07-17T00:21:26;101516.43;;;10.94;100.00
73679;BME280;61978;52.742;16.962;2022-07-17T00:23:53;101516.11;;;10.85;100.00
73679;BME280;61978;52.742;16.962;2022-07-17T00:26:20;101530.23;;;10.79;100.00
73679;BME280;61978;52.742;16.962;2022-07-17T00:28:47;101529.89;;;10.82;100.00
73679;BME280;61978;52.742;16.962;2022-07-17T00:31:14;101530.56;;;10.76;100.00
73679;BME280;61978;52.742;16.962;2022-07-17T00:33:40;101529.56;;;10.77;100.00
73679;BME280;61978;52.742;16.962;2022-07-17T00:36:07;101534.94;;;10.77;100.00
73679;BME280;61978;52.742;16.962;2022-07-17T00:38:34;101532.57;;;10.78;100.00
73679;BME280;61978;52.742;16.962;2022-07-17T00:41:01;101539.28;;;10.78;100.00
73679;BME280;61978;52.742;16.962;2022-07-17T00:43:29;101538.97;;;10.77;100.00
73679;BME280;61978;52.742;16.962;2022-07-17T00:46:00;101542.98;;;10.85;100.00
73679;BME280;61978;52.742;16.962;2022-07-17T00:48:28;101536.09;;;10.91;100.00
73679;BME280;61978;52.742;16.962;2022-07-17T00:50:55;101529.19;;;10.96;100.00
73679;BME280;61978;52.742;16.962;2022-07-17T00:53:22;101536.25;;;11.01;100.00
73679;BME280;61978;52.742;16.962;2022-07-17T00:55:50;101536.25;;;11.01;100.00
73679;BME280;61978;52.742;16.962;2022-07-17T00:58:20;101546.84;;;10.95;100.00
73679;BME280;61978;52.742;16.962;2022-07-17T01:00:51;101550.05;;;10.86;100.00
73679;BME280;61978;52.742;16.962;2022-07-17T01:03:20;101550.38;;;10.75;100.00
73679;BME280;61978;52.742;16.962;2022-07-17T01:05:47;101550.22;;;10.77;100.00
73679;BME280;61978;52.742;16.962;2022-07-17T01:08:15;101547.67;;;10.87;100.00
73679;BME280;61978;52.742;16.962;2022-07-17T01:10:42;101546.66;;;10.96;100.00
73679;BME280;61978;52.742;16.962;2022-07-17T01:13:09;101546.16;;;10.93;100.00
73679;BME280;61978;52.742;16.962;2022-07-17T01:15:38;101545.00;;;10.95;100.00
73679;BME280;61978;52.742;16.962;2022-07-17T01:18:08;101538.60;;;11.00;100.00
73679;BME280;61978;52.742;16.962;2022-07-17T01:20:36;101539.26;;;11.02;100.00
73679;BME280;61978;52.742;16.962;2022-07-17T01:23:04;101539.58;;;11.11;100.00
73679;BME280;61978;52.742;16.962;2022-07-17T01:25:31;101546.45;;;11.14;100.00
73679;BME280;61978;52.742;16.962;2022-07-17T01:28:00;101545.64;;;11.09;100.00
73679;BME280;61978;52.742;16.962;2022-07-17T01:30:27;101543.98;;;11.04;100.00
73679;BME280;61978;52.742;16.962;2022-07-17T01:32:54;101548.02;;;11.04;100.00
73679;BME280;61978;52.742;16.962;2022-07-17T01:35:21;101545.98;;;11.06;100.00
73679;BME280;61978;52.742;16.962;2022-07-17T01:37:48;101546.32;;;11.03;100.00
73679;BME280;61978;52.742;16.962;2022-07-17T01:40:16;101544.48;;;11.04;100.00
73679;BME280;61978;52.742;16.962;2022-07-17T01:42:47;101549.86;;;11.04;100.00
73679;BME280;61978;52.742;16.962;2022-07-17T01:45:15;101541.61;;;11.09;100.00
73679;BME280;61978;52.742;16.962;2022-07-17T01:47:45;101546.66;;;11.00;100.00
73679;BME280;61978;52.742;16.962;2022-07-17T01:50:13;101545.99;;;10.90;100.00
73679;BME280;61978;52.742;16.962;2022-07-17T01:52:43;101552.55;;;10.88;100.00
73679;BME280;61978;52.742;16.962;2022-07-17T01:55:13;101551.72;;;10.91;100.00
73679;BME280;61978;52.742;16.962;2022-07-17T01:57:41;101555.91;;;10.94;100.00
73679;BME280;61978;52.742;16.962;2022-07-17T02:00:13;101541.95;;;11.02;100.00
73679;BME280;61978;52.742;16.962;2022-07-17T02:02:43;101545.66;;;10.97;100.00
73679;BME280;61978;52.742;16.962;2022-07-17T02:05:11;101550.69;;;10.96;100.00
73679;BME280;61978;52.742;16.962;2022-07-17T02:07:38;101538.25;;;10.99;100.00
73679;BME280;61978;52.742;16.962;2022-07-17T02:10:08;101551.38;;;10.98;100.00
73679;BME280;61978;52.742;16.962;2022-07-17T02:12:36;101546.34;;;10.95;100.00
73679;BME280;61978;52.742;16.962;2022-07-17T02:15:04;101545.49;;;10.91;100.00
73679;BME280;61978;52.742;16.962;2022-07-17T02:17:33;101550.72;;;10.92;100.00
73679;BME280;61978;52.742;16.962;2022-07-17T02:20:00;101553.06;;;10.91;100.00
73679;BME280;61978;52.742;16.962;2022-07-17T02:22:27;101547.02;;;10.85;100.00
73679;BME280;61978;52.742;16.962;2022-07-17T02:24:54;101546.86;;;10.83;100.00
73679;BME280;61978;52.742;16.962;2022-07-17T02:27:21;101550.55;;;10.82;100.00
73679;BME280;61978;52.742;16.962;2022-07-17T02:29:48;101547.34;;;10.78;100.00
73679;BME280;61978;52.742;16.962;2022-07-17T02:32:15;101543.66;;;10.79;100.00
73679;BME280;61978;52.742;16.962;2022-07-17T02:34:42;101548.72;;;10.74;100.00
73679;BME280;61978;52.742;16.962;2022-07-17T02:37:09;101552.92;;;10.69;100.00
73679;BME280;61978;52.742;16.962;2022-07-17T02:39:36;101553.07;;;10.67;100.00
73679;BME280;61978;52.742;16.962;2022-07-17T02:42:03;101560.13;;;10.64;100.00
73679;BME280;61978;52.742;16.962;2022-07-17T02:44:32;101558.44;;;10.63;100.00
73679;BME280;61978;52.742;16.962;2022-07-17T02:46:59;101558.44;;;10.63;100.00
73679;BME280;61978;52.742;16.962;2022-07-17T02:49:26;101557.42;;;10.60;100.00
73679;BME280;61978;52.742;16.962;2022-07-17T02:51:54;101561.45;;;10.60;100.00
73679;BME280;61978;52.742;16.962;2022-07-17T02:54:20;101563.98;;;10.57;100.00
73679;BME280;61978;52.742;16.962;2022-07-17T02:56:48;101562.16;;;10.54;100.00
73679;BME280;61978;52.742;16.962;2022-07-17T02:59:15;101563.14;;;10.49;100.00
73679;BME280;61978;52.742;16.962;2022-07-17T03:01:43;101563.47;;;10.46;100.00
73679;BME280;61978;52.742;16.962;2022-07-17T03:04:10;101573.55;;;10.44;100.00
73679;BME280;61978;52.742;16.962;2022-07-17T03:06:37;101578.24;;;10.38;100.00
73679;BME280;61978;52.742;16.962;2022-07-17T03:09:04;101569.84;;;10.37;100.00
73679;BME280;61978;52.742;16.962;2022-07-17T03:11:31;101565.81;;;10.37;100.00
73679;BME280;61978;52.742;16.962;2022-07-17T03:14:00;101564.30;;;10.34;100.00
73679;BME280;61978;52.742;16.962;2022-07-17T03:16:29;101568.18;;;10.36;100.00
73679;BME280;61978;52.742;16.962;2022-07-17T03:18:57;101567.83;;;10.35;100.00
73679;BME280;61978;52.742;16.962;2022-07-17T03:21:25;101570.00;;;10.31;100.00
73679;BME280;61978;52.742;16.962;2022-07-17T03:23:54;101572.85;;;10.34;100.00
73679;BME280;61978;52.742;16.962;2022-07-17T03:26:22;101575.20;;;10.37;100.00
73679;BME280;61978;52.742;16.962;2022-07-17T03:28:48;101574.56;;;10.39;100.00
73679;BME280;61978;52.742;16.962;2022-07-17T03:31:15;101576.22;;;10.40;100.00
73679;BME280;61978;52.742;16.962;2022-07-17T03:33:46;101568.84;;;10.46;100.00
73679;BME280;61978;52.742;16.962;2022-07-17T03:36:14;101571.89;;;10.51;100.00
73679;BME280;61978;52.742;16.962;2022-07-17T03:38:42;101572.90;;;10.54;100.00
73679;BME280;61978;52.742;16.962;2022-07-17T03:41:11;101574.91;;;10.56;100.00
73679;BME280;61978;52.742;16.962;2022-07-17T03:43:41;101575.23;;;10.53;100.00
73679;BME280;61978;52.742;16.962;2022-07-17T03:46:10;101578.94;;;10.56;100.00
73679;BME280;61978;52.742;16.962;2022-07-17T03:48:38;101572.38;;;10.58;100.00
73679;BME280;61978;52.742;16.962;2022-07-17T03:51:05;101575.75;;;10.65;100.00
73679;BME280;61978;52.742;16.962;2022-07-17T03:53:33;101580.28;;;10.68;100.00
73679;BME280;61978;52.742;16.962;2022-07-17T03:56:03;101579.95;;;10.71;100.00
73679;BME280;61978;52.742;16.962;2022-07-17T03:58:32;101585.31;;;10.79;100.00
73679;BME280;61978;52.742;16.962;2022-07-17T04:00:59;101590.35;;;10.82;100.00
73679;BME280;61978;52.742;16.962;2022-07-17T04:03:27;101599.23;;;10.87;100.00
73679;BME280;61978;52.742;16.962;2022-07-17T04:05:54;101595.41;;;10.89;100.00
73679;BME280;61978;52.742;16.962;2022-07-17T04:08:22;101593.88;;;10.95;100.00
73679;BME280;61978;52.742;16.962;2022-07-17T04:10:51;101590.36;;;10.98;100.00
73679;BME280;61978;52.742;16.962;2022-07-17T04:13:19;101597.40;;;11.03;100.00
73679;BME280;61978;52.742;16.962;2022-07-17T04:15:47;101595.72;;;11.06;100.00
73679;BME280;61978;52.742;16.962;2022-07-17T04:18:25;101597.73;;;11.12;100.00
73679;BME280;61978;52.742;16.962;2022-07-17T04:21:03;101588.63;;;11.18;100.00
73679;BME280;61978;52.742;16.962;2022-07-17T04:23:27;101600.05;;;11.24;100.00
73679;BME280;61978;52.742;16.962;2022-07-17T04:25:58;101583.42;;;11.28;100.00
73679;BME280;61978;52.742;16.962;2022-07-17T04:28:29;101591.30;;;11.34;100.00
73679;BME280;61978;52.742;16.962;2022-07-17T04:30:56;101589.43;;;11.38;100.00
73679;BME280;61978;52.742;16.962;2022-07-17T04:33:25;101595.31;;;11.46;100.00
73679;BME280;61978;52.742;16.962;2022-07-17T04:35:53;101595.44;;;11.52;100.00
73679;BME280;61978;52.742;16.962;2022-07-17T04:38:20;101595.94;;;11.60;100.00
73679;BME280;61978;52.742;16.962;2022-07-17T04:40:48;101589.36;;;11.66;100.00
73679;BME280;61978;52.742;16.962;2022-07-17T04:43:15;101591.89;;;11.72;100.00
73679;BME280;61978;52.742;16.962;2022-07-17T04:45:42;101596.88;;;11.79;100.00
73679;BME280;61978;52.742;16.962;2022-07-17T04:48:10;101594.03;;;11.85;100.00
73679;BME280;61978;52.742;16.962;2022-07-17T04:50:38;101598.52;;;11.92;100.00
73679;BME280;61978;52.742;16.962;2022-07-17T04:53:05;101589.41;;;11.97;100.00
73679;BME280;61978;52.742;16.962;2022-07-17T04:55:32;101586.01;;;12.03;100.00
73679;BME280;61978;52.742;16.962;2022-07-17T04:57:58;101593.68;;;12.14;100.00
73679;BME280;61978;52.742;16.962;2022-07-17T05:00:26;101599.05;;;12.18;100.00
73679;BME280;61978;52.742;16.962;2022-07-17T05:02:56;101593.31;;;12.21;100.00
73679;BME280;61978;52.742;16.962;2022-07-17T05:05:22;101603.04;;;12.26;100.00
73679;BME280;61978;52.742;16.962;2022-07-17T05:07:50;101606.00;;;12.40;100.00
73679;BME280;61978;52.742;16.962;2022-07-17T05:10:17;101607.98;;;12.46;100.00
73679;BME280;61978;52.742;16.962;2022-07-17T05:12:44;101598.17;;;12.53;100.00
73679;BME280;61978;52.742;16.962;2022-07-17T05:15:11;101602.13;;;12.65;100.00
73679;BME280;61978;52.742;16.962;2022-07-17T05:17:38;101601.61;;;12.88;100.00
73679;BME280;61978;52.742;16.962;2022-07-17T05:20:07;101603.14;;;13.09;100.00
73679;BME280;61978;52.742;16.962;2022-07-17T05:22:35;101600.84;;;13.35;98.96
73679;BME280;61978;52.742;16.962;2022-07-17T05:25:05;101605.91;;;13.64;97.63
73679;BME280;61978;52.742;16.962;2022-07-17T05:27:32;101611.81;;;13.78;96.09
73679;BME280;61978;52.742;16.962;2022-07-17T05:30:01;101608.06;;;13.83;94.76
73679;BME280;61978;52.742;16.962;2022-07-17T05:32:28;101613.74;;;13.59;94.14
73679;BME280;61978;52.742;16.962;2022-07-17T05:34:55;101624.64;;;13.51;94.53
73679;BME280;61978;52.742;16.962;2022-07-17T05:37:22;101615.26;;;13.57;95.08
73679;BME280;61978;52.742;16.962;2022-07-17T05:39:49;101619.35;;;13.97;94.78
73679;BME280;61978;52.742;16.962;2022-07-17T05:42:18;101611.05;;;14.13;93.67
73679;BME280;61978;52.742;16.962;2022-07-17T05:44:45;101612.66;;;14.29;92.42
73679;BME280;61978;52.742;16.962;2022-07-17T05:47:12;101626.59;;;14.11;91.23
73679;BME280;61978;52.742;16.962;2022-07-17T05:49:41;101627.78;;;14.23;91.10
73679;BME280;61978;52.742;16.962;2022-07-17T05:52:09;101624.13;;;14.45;91.05
73679;BME280;61978;52.742;16.962;2022-07-17T05:54:38;101623.46;;;14.43;90.00
73679;BME280;61978;52.742;16.962;2022-07-17T05:57:09;101619.95;;;14.43;90.14
73679;BME280;61978;52.742;16.962;2022-07-17T05:59:36;101620.22;;;14.69;90.02
73679;BME280;61978;52.742;16.962;2022-07-17T06:02:05;101618.30;;;15.12;89.91
73679;BME280;61978;52.742;16.962;2022-07-17T06:04:32;101612.44;;;15.19;88.96
73679;BME280;61978;52.742;16.962;2022-07-17T06:06:59;101614.53;;;15.34;88.26
73679;BME280;61978;52.742;16.962;2022-07-17T06:09:27;101618.18;;;15.20;88.12
73679;BME280;61978;52.742;16.962;2022-07-17T06:11:55;101621.69;;;14.93;87.79
73679;BME280;61978;52.742;16.962;2022-07-17T06:14:21;101622.56;;;15.00;88.43
73679;BME280;61978;52.742;16.962;2022-07-17T06:16:49;101629.09;;;15.33;88.81
73679;BME280;61978;52.742;16.962;2022-07-17T06:19:17;101630.09;;;15.53;88.18
73679;BME280;61978;52.742;16.962;2022-07-17T06:21:46;101625.34;;;15.55;87.71
73679;BME280;61978;52.742;16.962;2022-07-17T06:24:14;101619.03;;;15.48;87.20
73679;BME280;61978;52.742;16.962;2022-07-17T06:26:41;101619.27;;;15.43;87.07
73679;BME280;61978;52.742;16.962;2022-07-17T06:29:08;101621.50;;;15.61;86.89
73679;BME280;61978;52.742;16.962;2022-07-17T06:31:35;101624.84;;;16.03;87.12
73679;BME280;61978;52.742;16.962;2022-07-17T06:34:04;101618.50;;;16.00;85.77
73679;BME280;61978;52.742;16.962;2022-07-17T06:36:31;101617.70;;;16.13;85.46
73679;BME280;61978;52.742;16.962;2022-07-17T06:38:58;101618.84;;;16.08;85.19
73679;BME280;61978;52.742;16.962;2022-07-17T06:41:27;101614.94;;;16.24;84.45
73679;BME280;61978;52.742;16.962;2022-07-17T06:43:54;101628.17;;;15.99;84.78
73679;BME280;61978;52.742;16.962;2022-07-17T06:46:20;101615.89;;;16.27;84.89
73679;BME280;61978;52.742;16.962;2022-07-17T06:48:48;101615.73;;;16.41;84.96
73679;BME280;61978;52.742;16.962;2022-07-17T06:51:19;101612.48;;;16.79;83.94
73679;BME280;61978;52.742;16.962;2022-07-17T06:53:46;101618.66;;;16.83;83.33
73679;BME280;61978;52.742;16.962;2022-07-17T06:56:17;101617.38;;;16.73;82.78
73679;BME280;61978;52.742;16.962;2022-07-17T06:58:44;101627.41;;;16.48;83.11
73679;BME280;61978;52.742;16.962;2022-07-17T07:01:11;101620.92;;;16.43;83.44
73679;BME280;61978;52.742;16.962;2022-07-17T07:03:38;101623.66;;;16.93;84.04
73679;BME280;61978;52.742;16.962;2022-07-17T07:06:06;101608.72;;;17.39;82.97
73679;BME280;61978;52.742;16.962;2022-07-17T07:08:35;101615.63;;;17.02;81.78
73679;BME280;61978;52.742;16.962;2022-07-17T07:11:03;101610.52;;;17.09;82.02
73679;BME280;61978;52.742;16.962;2022-07-17T07:13:32;101614.45;;;16.68;82.23
73679;BME280;61978;52.742;16.962;2022-07-17T07:16:00;101621.03;;;16.76;82.41
73679;BME280;61978;52.742;16.962;2022-07-17T07:18:30;101612.58;;;16.68;82.64
73679;BME280;61978;52.742;16.962;2022-07-17T07:20:57;101614.89;;;16.91;82.30
73679;BME280;61978;52.742;16.962;2022-07-17T07:23:25;101615.39;;;16.84;81.87
73679;BME280;61978;52.742;16.962;2022-07-17T07:25:52;101620.94;;;16.93;81.87
73679;BME280;61978;52.742;16.962;2022-07-17T07:28:19;101615.84;;;17.33;81.66
73679;BME280;61978;52.742;16.962;2022-07-17T07:30:47;101611.95;;;17.45;81.47
73679;BME280;61978;52.742;16.962;2022-07-17T07:33:15;101608.94;;;17.57;79.45
73679;BME280;61978;52.742;16.962;2022-07-17T07:35:43;101597.60;;;18.24;80.37
73679;BME280;61978;52.742;16.962;2022-07-17T07:38:12;101593.28;;;18.10;78.07
73679;BME280;61978;52.742;16.962;2022-07-17T07:40:40;101600.67;;;17.96;78.51
73679;BME280;61978;52.742;16.962;2022-07-17T07:43:27;101593.14;;;17.63;78.67
73679;BME280;61978;52.742;16.962;2022-07-17T07:45:54;101618.77;;;16.86;79.15
73679;BME280;61978;52.742;16.962;2022-07-17T07:48:21;101617.09;;;16.91;79.68
73679;BME280;61978;52.742;16.962;2022-07-17T07:50:48;101618.55;;;16.94;78.18
73679;BME280;61978;52.742;16.962;2022-07-17T07:53:15;101619.92;;;16.50;78.58
73679;BME280;61978;52.742;16.962;2022-07-17T07:55:43;101622.57;;;16.61;80.56
73679;BME280;61978;52.742;16.962;2022-07-17T07:58:11;101624.75;;;16.55;80.42
73679;BME280;61978;52.742;16.962;2022-07-17T08:00:39;101633.61;;;17.16;77.44
73679;BME280;61978;52.742;16.962;2022-07-17T08:03:07;101624.20;;;17.25;76.26
73679;BME280;61978;52.742;16.962;2022-07-17T08:05:35;101620.45;;;17.13;77.88
73679;BME280;61978;52.742;16.962;2022-07-17T08:08:02;101629.84;;;17.04;78.68
73679;BME280;61978;52.742;16.962;2022-07-17T08:10:30;101637.72;;;16.73;76.52
73679;BME280;61978;52.742;16.962;2022-07-17T08:13:01;101645.06;;;17.05;76.60
73679;BME280;61978;52.742;16.962;2022-07-17T08:15:27;101629.92;;;17.59;74.50
73679;BME280;61978;52.742;16.962;2022-07-17T08:17:55;101636.94;;;17.18;75.56
73679;BME280;61978;52.742;16.962;2022-07-17T08:20:22;101645.61;;;16.54;75.44
73679;BME280;61978;52.742;16.962;2022-07-17T08:22:50;101646.19;;;16.74;76.23
73679;BME280;61978;52.742;16.962;2022-07-17T08:25:17;101643.40;;;17.17;74.87
73679;BME280;61978;52.742;16.962;2022-07-17T08:27:45;101650.06;;;16.88;74.04
73679;BME280;61978;52.742;16.962;2022-07-17T08:30:14;101651.73;;;16.83;75.25
73679;BME280;61978;52.742;16.962;2022-07-17T08:32:42;101656.42;;;16.72;75.24
73679;BME280;61978;52.742;16.962;2022-07-17T08:35:11;101650.30;;;17.33;74.97
73679;BME280;61978;52.742;16.962;2022-07-17T08:37:45;101640.20;;;17.86;73.66
73679;BME280;61978;52.742;16.962;2022-07-17T08:40:24;101639.83;;;18.11;72.77
73679;BME280;61978;52.742;16.962;2022-07-17T08:42:54;101642.72;;;18.16;70.86
73679;BME280;61978;52.742;16.962;2022-07-17T08:45:23;101637.88;;;17.21;69.12
73679;BME280;61978;52.742;16.962;2022-07-17T08:47:53;101637.33;;;17.61;70.60
73679;BME280;61978;52.742;16.962;2022-07-17T08:50:27;101625.72;;;18.27;70.30
73679;BME280;61978;52.742;16.962;2022-07-17T08:52:54;101632.36;;;17.93;68.47
73679;BME280;61978;52.742;16.962;2022-07-17T08:55:22;101629.25;;;17.76;67.90
73679;BME280;61978;52.742;16.962;2022-07-17T08:57:53;101625.95;;;18.85;70.25
73679;BME280;61978;52.742;16.962;2022-07-17T09:00:21;101623.50;;;18.33;66.99
73679;BME280;61978;52.742;16.962;2022-07-17T09:03:01;101621.94;;;18.06;69.62
73679;BME280;61978;52.742;16.962;2022-07-17T09:05:31;101635.68;;;17.60;70.38
73679;BME280;61978;52.742;16.962;2022-07-17T09:07:59;101624.81;;;18.17;69.46
73679;BME280;61978;52.742;16.962;2022-07-17T09:13:27;101615.70;;;18.05;66.34
73679;BME280;61978;52.742;16.962;2022-07-17T09:15:59;101619.04;;;18.52;65.16
73679;BME280;61978;52.742;16.962;2022-07-17T09:18:27;101612.22;;;18.99;64.60
73679;BME280;61978;52.742;16.962;2022-07-17T09:20:59;101624.44;;;18.14;64.15
73679;BME280;61978;52.742;16.962;2022-07-17T09:23:28;101637.52;;;17.53;65.11
73679;BME280;61978;52.742;16.962;2022-07-17T09:25:57;101625.17;;;17.76;65.78
73679;BME280;61978;52.742;16.962;2022-07-17T09:28:26;101635.33;;;17.52;68.13
73679;BME280;61978;52.742;16.962;2022-07-17T09:30:54;101630.83;;;17.82;69.75
73679;BME280;61978;52.742;16.962;2022-07-17T09:33:27;101634.83;;;17.72;68.38
73679;BME280;61978;52.742;16.962;2022-07-17T09:36:05;101625.03;;;18.38;68.12
73679;BME280;61978;52.742;16.962;2022-07-17T09:38:33;101621.71;;;18.74;66.83
73679;BME280;61978;52.742;16.962;2022-07-17T09:41:14;101621.30;;;18.61;65.12
73679;BME280;61978;52.742;16.962;2022-07-17T09:43:41;101627.31;;;18.95;64.52
73679;BME280;61978;52.742;16.962;2022-07-17T09:46:19;101627.45;;;18.15;65.55
73679;BME280;61978;52.742;16.962;2022-07-17T09:48:54;101636.72;;;17.46;65.82
73679;BME280;61978;52.742;16.962;2022-07-17T09:51:28;101631.02;;;17.87;65.24
73679;BME280;61978;52.742;16.962;2022-07-17T09:53:50;101630.53;;;18.47;65.25
73679;BME280;61978;52.742;16.962;2022-07-17T09:56:19;101622.60;;;18.52;65.25
73679;BME280;61978;52.742;16.962;2022-07-17T09:58:49;101630.42;;;17.71;66.32
73679;BME280;61978;52.742;16.962;2022-07-17T10:01:17;101636.89;;;17.70;65.80
73679;BME280;61978;52.742;16.962;2022-07-17T10:03:44;101634.53;;;17.94;64.67
73679;BME280;61978;52.742;16.962;2022-07-17T10:06:13;101621.79;;;18.92;66.46
73679;BME280;61978;52.742;16.962;2022-07-17T10:08:40;101621.38;;;18.79;61.98
73679;BME280;61978;52.742;16.962;2022-07-17T10:11:08;101618.66;;;18.35;63.32
73679;BME280;61978;52.742;16.962;2022-07-17T10:13:38;101625.06;;;18.09;62.48
73679;BME280;61978;52.742;16.962;2022-07-17T10:16:06;101621.09;;;18.56;63.64
73679;BME280;61978;52.742;16.962;2022-07-17T10:18:40;101614.83;;;18.71;63.37
73679;BME280;61978;52.742;16.962;2022-07-17T10:21:13;101617.55;;;18.71;63.78
73679;BME280;61978;52.742;16.962;2022-07-17T10:23:47;101619.27;;;18.81;63.63
73679;BME280;61978;52.742;16.962;2022-07-17T10:26:13;101609.50;;;18.99;64.10
73679;BME280;61978;52.742;16.962;2022-07-17T10:28:42;101613.59;;;19.23;62.38
73679;BME280;61978;52.742;16.962;2022-07-17T10:31:09;101614.34;;;18.97;63.36
73679;BME280;61978;52.742;16.962;2022-07-17T10:33:37;101618.87;;;18.78;62.40
73679;BME280;61978;52.742;16.962;2022-07-17T10:36:05;101608.95;;;19.15;64.38
73679;BME280;61978;52.742;16.962;2022-07-17T10:38:40;101614.18;;;18.76;61.39
73679;BME280;61978;52.742;16.962;2022-07-17T10:41:06;101610.36;;;18.23;62.16
73679;BME280;61978;52.742;16.962;2022-07-17T10:43:47;101623.64;;;18.00;62.77
73679;BME280;61978;52.742;16.962;2022-07-17T10:46:17;101614.38;;;19.06;63.59
73679;BME280;61978;52.742;16.962;2022-07-17T10:48:48;101614.69;;;19.16;63.11
73679;BME280;61978;52.742;16.962;2022-07-17T10:51:19;101614.30;;;18.34;63.24
73679;BME280;61978;52.742;16.962;2022-07-17T10:53:47;101625.15;;;18.78;62.13
73679;BME280;61978;52.742;16.962;2022-07-17T10:56:18;101628.77;;;18.28;62.23
73679;BME280;61978;52.742;16.962;2022-07-17T10:58:45;101626.18;;;18.62;63.26
73679;BME280;61978;52.742;16.962;2022-07-17T11:01:15;101624.34;;;19.03;63.23
73679;BME280;61978;52.742;16.962;2022-07-17T11:03:51;101618.83;;;18.84;62.46
73679;BME280;61978;52.742;16.962;2022-07-17T11:06:27;101620.53;;;18.63;63.51
73679;BME280;61978;52.742;16.962;2022-07-17T11:09:10;101613.55;;;18.36;62.74
73679;BME280;61978;52.742;16.962;2022-07-17T11:11:50;101613.86;;;18.91;63.72
73679;BME280;61978;52.742;16.962;2022-07-17T11:14:19;101607.20;;;19.11;60.86
73679;BME280;61978;52.742;16.962;2022-07-17T11:16:51;101616.34;;;19.32;63.21
73679;BME280;61978;52.742;16.962;2022-07-17T11:19:27;101614.50;;;19.02;62.66
73679;BME280;61978;52.742;16.962;2022-07-17T11:21:55;101611.42;;;19.57;64.28
73679;BME280;61978;52.742;16.962;2022-07-17T11:24:40;101612.78;;;19.57;62.67
73679;BME280;61978;52.742;16.962;2022-07-17T11:27:23;101607.67;;;19.51;62.21
73679;BME280;61978;52.742;16.962;2022-07-17T11:29:41;101602.53;;;19.43;62.27
73679;BME280;61978;52.742;16.962;2022-07-17T11:32:08;101606.33;;;19.02;63.20
73679;BME280;61978;52.742;16.962;2022-07-17T11:34:37;101615.94;;;19.04;64.17
73679;BME280;61978;52.742;16.962;2022-07-17T11:37:05;101611.55;;;19.53;62.55
73679;BME280;61978;52.742;16.962;2022-07-17T11:39:49;101598.12;;;20.24;63.46
73679;BME280;61978;52.742;16.962;2022-07-17T11:42:18;101601.20;;;19.98;59.73
73679;BME280;61978;52.742;16.962;2022-07-17T11:44:49;101607.55;;;19.55;60.54
73679;BME280;61978;52.742;16.962;2022-07-17T11:47:23;101600.36;;;19.70;58.87
73679;BME280;61978;52.742;16.962;2022-07-17T11:50:08;101602.17;;;19.24;59.75
73679;BME280;61978;52.742;16.962;2022-07-17T11:55:40;101600.67;;;19.37;60.81
73679;BME280;61978;52.742;16.962;2022-07-17T11:58:08;101597.33;;;19.26;60.14
73679;BME280;61978;52.742;16.962;2022-07-17T12:00:36;101599.84;;;19.03;61.41
73679;BME280;61978;52.742;16.962;2022-07-17T12:03:08;101602.23;;;19.60;63.18
73679;BME280;61978;52.742;16.962;2022-07-17T12:05:36;101604.00;;;19.30;60.25
73679;BME280;61978;52.742;16.962;2022-07-17T12:08:08;101600.44;;;19.29;60.78
73679;BME280;61978;52.742;16.962;2022-07-17T12:10:34;101598.61;;;20.03;60.40
73679;BME280;61978;52.742;16.962;2022-07-17T12:13:04;101594.36;;;19.27;59.48
73679;BME280;61978;52.742;16.962;2022-07-17T12:15:48;101589.16;;;19.26;59.96
73679;BME280;61978;52.742;16.962;2022-07-17T12:18:27;101586.80;;;18.96;59.77
73679;BME280;61978;52.742;16.962;2022-07-17T12:21:02;101585.73;;;19.46;59.93
73679;BME280;61978;52.742;16.962;2022-07-17T12:23:33;101571.34;;;20.03;58.21
73679;BME280;61978;52.742;16.962;2022-07-17T12:28:38;101558.83;;;20.43;57.69
73679;BME280;61978;52.742;16.962;2022-07-17T12:31:07;101562.30;;;20.11;57.19
73679;BME280;61978;52.742;16.962;2022-07-17T12:33:35;101568.30;;;20.02;57.28
73679;BME280;61978;52.742;16.962;2022-07-17T12:36:05;101557.37;;;20.29;57.98
73679;BME280;61978;52.742;16.962;2022-07-17T12:38:32;101562.72;;;19.87;57.91
73679;BME280;61978;52.742;16.962;2022-07-17T12:41:02;101554.12;;;20.11;57.32
73679;BME280;61978;52.742;16.962;2022-07-17T12:43:29;101545.41;;;20.30;59.03
73679;BME280;61978;52.742;16.962;2022-07-17T12:45:58;101550.67;;;20.64;58.16
73679;BME280;61978;52.742;16.962;2022-07-17T12:48:25;101544.45;;;20.77;56.80
73679;BME280;61978;52.742;16.962;2022-07-17T12:51:05;101559.98;;;20.65;56.82
73679;BME280;61978;52.742;16.962;2022-07-17T12:53:32;101548.13;;;20.30;56.70